sensor_id;sensor_type;location;lat;lon;timestamp;pressure;altitude;pressure_sealevel;temperature;humidity
71795;BME280;59641;45.188;5.712;2022-07-22T16:45:49;98858.19;;;34.97;22.04
71795;BME280;59641;45.188;5.712;2022-07-22T16:48:15;98842.69;;;35.10;22.06
71795;BME280;59641;45.188;5.712;2022-07-22T16:50:40;98850.28;;;35.31;20.77
71795;BME280;59641;45.188;5.712;2022-07-22T16:53:06;98842.69;;;35.53;20.85
71795;BME280;59641;45.188;5.712;2022-07-22T16:55:31;98847.84;;;35.76;20.67
71795;BME280;59641;45.188;5.712;2022-07-22T16:57:57;98839.41;;;35.98;21.27
71795;BME280;59641;45.188;5.712;2022-07-22T17:00:22;98846.16;;;36.18;21.15
71795;BME280;59641;45.188;5.712;2022-07-22T17:02:48;98845.28;;;36.36;21.08
71795;BME280;59641;45.188;5.712;2022-07-22T17:05:13;98848.38;;;36.48;20.65
71795;BME280;59641;45.188;5.712;2022-07-22T17:07:39;98840.78;;;36.63;20.77
71795;BME280;59641;45.188;5.712;2022-07-22T17:10:05;98847.88;;;36.75;20.36
71795;BME280;59641;45.188;5.712;2022-07-22T17:12:31;98846.19;;;36.85;19.57
71795;BME280;59641;45.188;5.712;2022-07-22T17:14:57;98842.56;;;36.92;19.54
71795;BME280;59641;45.188;5.712;2022-07-22T17:17:22;98852.47;;;37.03;19.98
71795;BME280;59641;45.188;5.712;2022-07-22T17:19:48;98852.50;;;37.07;18.30
71795;BME280;59641;45.188;5.712;2022-07-22T17:22:13;98851.63;;;37.14;19.27
71795;BME280;59641;45.188;5.712;2022-07-22T17:24:39;98850.81;;;37.17;20.25
71795;BME280;59641;45.188;5.712;2022-07-22T17:27:04;98849.97;;;37.20;18.71
71795;BME280;59641;45.188;5.712;2022-07-22T17:29:29;98859.53;;;37.22;19.41
71795;BME280;59641;45.188;5.712;2022-07-22T17:31:55;98862.69;;;37.28;19.48
71795;BME280;59641;45.188;5.712;2022-07-22T17:34:20;98858.66;;;37.33;19.48
71795;BME280;59641;45.188;5.712;2022-07-22T17:36:46;98866.25;;;37.36;19.21
71795;BME280;59641;45.188;5.712;2022-07-22T17:39:11;98863.41;;;37.39;19.76
71795;BME280;59641;45.188;5.712;2022-07-22T17:41:37;98866.59;;;37.41;19.33
71795;BME280;59641;45.188;5.712;2022-07-22T17:44:03;98868.97;;;37.43;19.68
71795;BME280;59641;45.188;5.712;2022-07-22T17:46:28;98869.75;;;37.43;20.03
71795;BME280;59641;45.188;5.712;2022-07-22T17:48:53;98873.75;;;37.42;19.76
71795;BME280;59641;45.188;5.712;2022-07-22T17:51:19;98876.16;;;37.44;19.67
71795;BME280;59641;45.188;5.712;2022-07-22T17:53:45;98876.56;;;37.42;19.71
71795;BME280;59641;45.188;5.712;2022-07-22T17:56:10;98876.16;;;37.40;19.49
71795;BME280;59641;45.188;5.712;2022-07-22T17:58:36;98875.38;;;37.40;19.72
71795;BME280;59641;45.188;5.712;2022-07-22T18:01:01;98884.59;;;37.37;18.93
71795;BME280;59641;45.188;5.712;2022-07-22T18:03:27;98893.84;;;37.34;19.82
71795;BME280;59641;45.188;5.712;2022-07-22T18:05:52;98893.47;;;37.28;19.79
71795;BME280;59641;45.188;5.712;2022-07-22T18:08:19;98897.09;;;37.25;19.73
71795;BME280;59641;45.188;5.712;2022-07-22T18:10:44;98905.53;;;37.21;19.50
71795;BME280;59641;45.188;5.712;2022-07-22T18:13:10;98901.13;;;37.20;20.43
71795;BME280;59641;45.188;5.712;2022-07-22T18:15:36;98902.34;;;37.19;19.75
71795;BME280;59641;45.188;5.712;2022-07-22T18:18:01;98910.75;;;37.16;20.03
71795;BME280;59641;45.188;5.712;2022-07-22T18:20:27;98914.38;;;37.13;20.36
71795;BME280;59641;45.188;5.712;2022-07-22T18:22:52;98916.81;;;37.07;20.12
71795;BME280;59641;45.188;5.712;2022-07-22T18:25:17;98932.78;;;37.03;20.13
71795;BME280;59641;45.188;5.712;2022-07-22T18:27:43;98943.16;;;37.02;19.59
71795;BME280;59641;45.188;5.712;2022-07-22T18:30:09;98949.59;;;36.96;19.53
71795;BME280;59641;45.188;5.712;2022-07-22T18:32:35;98951.59;;;36.95;20.08
71795;BME280;59641;45.188;5.712;2022-07-22T18:35:01;98960.00;;;36.92;19.91
71795;BME280;59641;45.188;5.712;2022-07-22T18:37:26;98962.41;;;36.93;20.22
71795;BME280;59641;45.188;5.712;2022-07-22T18:39:52;98956.00;;;36.93;20.61
71795;BME280;59641;45.188;5.712;2022-07-22T18:42:17;98954.41;;;36.92;20.51
71795;BME280;59641;45.188;5.712;2022-07-22T18:44:42;98956.00;;;36.89;21.20
71795;BME280;59641;45.188;5.712;2022-07-22T18:47:08;98962.03;;;36.87;21.16
71795;BME280;59641;45.188;5.712;2022-07-22T18:49:37;98960.44;;;36.86;21.05
71795;BME280;59641;45.188;5.712;2022-07-22T18:52:02;98957.66;;;36.83;21.49
71795;BME280;59641;45.188;5.712;2022-07-22T18:54:28;98966.84;;;36.83;21.36
71795;BME280;59641;45.188;5.712;2022-07-22T18:56:53;98966.44;;;36.81;21.71
71795;BME280;59641;45.188;5.712;2022-07-22T18:59:19;98966.84;;;36.80;21.75
71795;BME280;59641;45.188;5.712;2022-07-22T19:01:45;98977.63;;;36.81;21.69
71795;BME280;59641;45.188;5.712;2022-07-22T19:04:10;98976.06;;;36.80;21.70
71795;BME280;59641;45.188;5.712;2022-07-22T19:06:36;98981.25;;;36.78;21.65
71795;BME280;59641;45.188;5.712;2022-07-22T19:09:01;98977.25;;;36.76;21.56
71795;BME280;59641;45.188;5.712;2022-07-22T19:11:27;98971.69;;;36.68;22.31
71795;BME280;59641;45.188;5.712;2022-07-22T19:13:53;98972.50;;;36.69;22.63
71795;BME280;59641;45.188;5.712;2022-07-22T19:16:18;98968.50;;;36.63;22.91
71795;BME280;59641;45.188;5.712;2022-07-22T19:18:43;98968.13;;;36.61;22.79
71795;BME280;59641;45.188;5.712;2022-07-22T19:21:09;98976.13;;;36.59;22.67
71795;BME280;59641;45.188;5.712;2022-07-22T19:23:35;98981.31;;;36.60;23.00
71795;BME280;59641;45.188;5.712;2022-07-22T19:26:00;98969.34;;;36.56;22.74
71795;BME280;59641;45.188;5.712;2022-07-22T19:28:26;98974.91;;;36.56;22.76
71795;BME280;59641;45.188;5.712;2022-07-22T19:30:51;98983.69;;;36.51;22.70
71795;BME280;59641;45.188;5.712;2022-07-22T19:33:19;98987.31;;;36.52;23.22
71795;BME280;59641;45.188;5.712;2022-07-22T19:35:44;98985.69;;;36.51;23.13
71795;BME280;59641;45.188;5.712;2022-07-22T19:38:10;98983.31;;;36.45;23.16
71795;BME280;59641;45.188;5.712;2022-07-22T19:40:35;98988.53;;;36.47;23.05
71795;BME280;59641;45.188;5.712;2022-07-22T19:43:01;98995.28;;;36.46;23.28
71795;BME280;59641;45.188;5.712;2022-07-22T19:45:26;98988.91;;;36.45;23.41
71795;BME280;59641;45.188;5.712;2022-07-22T19:47:52;98994.91;;;36.44;23.72
71795;BME280;59641;45.188;5.712;2022-07-22T19:50:17;98990.91;;;36.41;23.68
71795;BME280;59641;45.188;5.712;2022-07-22T19:52:43;98990.91;;;36.41;23.60
71795;BME280;59641;45.188;5.712;2022-07-22T19:55:10;98995.72;;;36.41;24.09
71795;BME280;59641;45.188;5.712;2022-07-22T19:57:36;98999.28;;;36.41;31.63
71795;BME280;59641;45.188;5.712;2022-07-22T20:00:06;99001.72;;;36.36;27.58
71795;BME280;59641;45.188;5.712;2022-07-22T20:02:33;99013.69;;;36.33;24.92
71795;BME280;59641;45.188;5.712;2022-07-22T20:04:58;99018.47;;;36.29;24.85
71795;BME280;59641;45.188;5.712;2022-07-22T20:07:24;99023.69;;;36.23;24.74
71795;BME280;59641;45.188;5.712;2022-07-22T20:09:49;99017.31;;;36.19;25.42
71795;BME280;59641;45.188;5.712;2022-07-22T20:12:14;99019.72;;;36.13;25.00
71795;BME280;59641;45.188;5.712;2022-07-22T20:14:42;99026.47;;;36.05;25.20
71795;BME280;59641;45.188;5.712;2022-07-22T20:17:08;99028.06;;;35.95;24.69
71795;BME280;59641;45.188;5.712;2022-07-22T20:19:34;99022.06;;;35.86;25.20
71795;BME280;59641;45.188;5.712;2022-07-22T20:22:01;99032.44;;;35.78;24.70
71795;BME280;59641;45.188;5.712;2022-07-22T20:24:27;99042.00;;;35.74;25.62
71795;BME280;59641;45.188;5.712;2022-07-22T20:26:53;99047.19;;;35.68;25.13
71795;BME280;59641;45.188;5.712;2022-07-22T20:29:18;99044.81;;;35.63;25.71
71795;BME280;59641;45.188;5.712;2022-07-22T20:31:44;99047.19;;;35.61;25.42
71795;BME280;59641;45.188;5.712;2022-07-22T20:34:09;99057.91;;;35.59;25.66
71795;BME280;59641;45.188;5.712;2022-07-22T20:36:35;99060.31;;;35.53;25.84
71795;BME280;59641;45.188;5.712;2022-07-22T20:39:02;99066.66;;;35.50;25.64
71795;BME280;59641;45.188;5.712;2022-07-22T20:41:27;99076.25;;;35.46;25.76
71795;BME280;59641;45.188;5.712;2022-07-22T20:43:53;99074.22;;;35.39;25.95
71795;BME280;59641;45.188;5.712;2022-07-22T20:46:18;99078.59;;;35.36;26.09
71795;BME280;59641;45.188;5.712;2022-07-22T20:48:44;99082.16;;;35.33;26.25
71795;BME280;59641;45.188;5.712;2022-07-22T20:51:10;99078.97;;;35.31;26.17
71795;BME280;59641;45.188;5.712;2022-07-22T20:53:40;99075.00;;;35.29;26.32
71795;BME280;59641;45.188;5.712;2022-07-22T20:56:05;99065.00;;;35.28;26.78
71795;BME280;59641;45.188;5.712;2022-07-22T20:58:34;99064.59;;;35.26;26.63
71795;BME280;59641;45.188;5.712;2022-07-22T21:01:00;99065.81;;;35.25;26.45
71795;BME280;59641;45.188;5.712;2022-07-22T21:03:26;99085.31;;;35.25;26.56
71795;BME280;59641;45.188;5.712;2022-07-22T21:05:51;99094.88;;;35.24;26.53
71795;BME280;59641;45.188;5.712;2022-07-22T21:08:17;99106.44;;;35.22;26.78
71795;BME280;59641;45.188;5.712;2022-07-22T21:10:44;99102.81;;;35.18;26.24
71795;BME280;59641;45.188;5.712;2022-07-22T21:13:09;99104.41;;;35.15;26.82
71795;BME280;59641;45.188;5.712;2022-07-22T21:15:36;99113.16;;;35.10;26.90
71795;BME280;59641;45.188;5.712;2022-07-22T21:18:05;99107.13;;;35.05;27.05
71795;BME280;59641;45.188;5.712;2022-07-22T21:20:31;99113.09;;;35.03;27.00
71795;BME280;59641;45.188;5.712;2022-07-22T21:22:57;99123.84;;;35.01;26.85
71795;BME280;59641;45.188;5.712;2022-07-22T21:25:22;99119.06;;;35.02;26.78
71795;BME280;59641;45.188;5.712;2022-07-22T21:27:48;99125.03;;;35.00;26.56
71795;BME280;59641;45.188;5.712;2022-07-22T21:30:14;99114.66;;;34.97;26.84
71795;BME280;59641;45.188;5.712;2022-07-22T21:32:41;99106.69;;;34.95;26.43
71795;BME280;59641;45.188;5.712;2022-07-22T21:35:09;99113.03;;;34.92;26.20
71795;BME280;59641;45.188;5.712;2022-07-22T21:37:36;99113.84;;;34.93;26.15
71795;BME280;59641;45.188;5.712;2022-07-22T21:40:04;99114.59;;;34.90;26.29
71795;BME280;59641;45.188;5.712;2022-07-22T21:42:30;99103.81;;;34.85;26.22
71795;BME280;59641;45.188;5.712;2022-07-22T21:44:56;99104.19;;;34.79;26.34
71795;BME280;59641;45.188;5.712;2022-07-22T21:47:21;99091.03;;;34.73;26.66
71795;BME280;59641;45.188;5.712;2022-07-22T21:49:47;99083.03;;;34.64;26.61
71795;BME280;59641;45.188;5.712;2022-07-22T21:52:14;99092.13;;;34.61;26.73
71795;BME280;59641;45.188;5.712;2022-07-22T21:54:42;99102.44;;;34.57;27.13
71795;BME280;59641;45.188;5.712;2022-07-22T21:57:10;99113.19;;;34.55;26.92
71795;BME280;59641;45.188;5.712;2022-07-22T21:59:37;99115.56;;;34.53;26.49
71795;BME280;59641;45.188;5.712;2022-07-22T22:02:02;99121.13;;;34.53;26.32
71795;BME280;59641;45.188;5.712;2022-07-22T22:04:29;99129.47;;;34.53;26.19
71795;BME280;59641;45.188;5.712;2022-07-22T22:06:58;99128.66;;;34.49;26.29
71795;BME280;59641;45.188;5.712;2022-07-22T22:09:25;99127.84;;;34.48;26.22
71795;BME280;59641;45.188;5.712;2022-07-22T22:11:51;99134.19;;;34.45;26.33
71795;BME280;59641;45.188;5.712;2022-07-22T22:14:17;99128.16;;;34.36;26.05
71795;BME280;59641;45.188;5.712;2022-07-22T22:16:44;99134.09;;;34.31;26.34
71795;BME280;59641;45.188;5.712;2022-07-22T22:19:11;99138.81;;;34.27;26.54
71795;BME280;59641;45.188;5.712;2022-07-22T22:21:36;99143.97;;;34.25;26.48
71795;BME280;59641;45.188;5.712;2022-07-22T22:24:03;99138.75;;;34.20;26.00
71795;BME280;59641;45.188;5.712;2022-07-22T22:26:43;99133.53;;;34.14;26.25
71795;BME280;59641;45.188;5.712;2022-07-22T22:29:09;99121.19;;;34.08;26.44
71795;BME280;59641;45.188;5.712;2022-07-22T22:31:35;99128.34;;;34.09;26.60
71795;BME280;59641;45.188;5.712;2022-07-22T22:34:01;99120.78;;;34.10;26.41
71795;BME280;59641;45.188;5.712;2022-07-22T22:36:26;99123.56;;;34.10;25.89
71795;BME280;59641;45.188;5.712;2022-07-22T22:38:52;99113.63;;;34.09;26.36
71795;BME280;59641;45.188;5.712;2022-07-22T22:41:27;99104.03;;;34.06;26.03
71795;BME280;59641;45.188;5.712;2022-07-22T22:43:52;99104.41;;;34.05;26.01
71795;BME280;59641;45.188;5.712;2022-07-22T22:46:18;99115.53;;;34.05;26.61
71795;BME280;59641;45.188;5.712;2022-07-22T22:48:44;99109.97;;;34.05;26.35
71795;BME280;59641;45.188;5.712;2022-07-22T22:51:09;99121.53;;;34.07;26.53
71795;BME280;59641;45.188;5.712;2022-07-22T22:53:35;99122.31;;;34.07;26.23
71795;BME280;59641;45.188;5.712;2022-07-22T22:56:00;99121.19;;;34.08;26.33
71795;BME280;59641;45.188;5.712;2022-07-22T22:58:27;99119.91;;;34.06;26.29
71795;BME280;59641;45.188;5.712;2022-07-22T23:00:52;99115.91;;;34.03;26.28
71795;BME280;59641;45.188;5.712;2022-07-22T23:03:18;99121.47;;;34.03;26.57
71795;BME280;59641;45.188;5.712;2022-07-22T23:05:43;99119.03;;;33.98;26.13
71795;BME280;59641;45.188;5.712;2022-07-22T23:08:09;99114.25;;;33.95;26.51
71795;BME280;59641;45.188;5.712;2022-07-22T23:10:34;99116.97;;;33.91;26.60
71795;BME280;59641;45.188;5.712;2022-07-22T23:13:00;99122.16;;;33.89;26.32
71795;BME280;59641;45.188;5.712;2022-07-22T23:15:25;99130.09;;;33.87;26.95
71795;BME280;59641;45.188;5.712;2022-07-22T23:17:50;99124.91;;;33.86;26.48
71795;BME280;59641;45.188;5.712;2022-07-22T23:20:16;99120.91;;;33.83;26.62
71795;BME280;59641;45.188;5.712;2022-07-22T23:22:41;99122.88;;;33.83;26.89
71795;BME280;59641;45.188;5.712;2022-07-22T23:25:07;99122.03;;;33.79;26.68
71795;BME280;59641;45.188;5.712;2022-07-22T23:27:33;99130.75;;;33.73;27.00
71795;BME280;59641;45.188;5.712;2022-07-22T23:29:59;99125.09;;;33.66;26.83
71795;BME280;59641;45.188;5.712;2022-07-22T23:32:24;99120.25;;;33.60;26.90
71795;BME280;59641;45.188;5.712;2022-07-22T23:34:50;99125.78;;;33.56;27.07
71795;BME280;59641;45.188;5.712;2022-07-22T23:37:15;99119.75;;;33.54;27.50
71795;BME280;59641;45.188;5.712;2022-07-22T23:39:41;99131.25;;;33.52;27.03
71795;BME280;59641;45.188;5.712;2022-07-22T23:42:06;99122.91;;;33.52;27.32
71795;BME280;59641;45.188;5.712;2022-07-22T23:44:32;99129.25;;;33.49;27.29
71795;BME280;59641;45.188;5.712;2022-07-22T23:46:57;99134.78;;;33.46;27.56
71795;BME280;59641;45.188;5.712;2022-07-22T23:49:23;99131.53;;;33.40;27.12
71795;BME280;59641;45.188;5.712;2022-07-22T23:51:48;99128.66;;;33.33;27.46
71795;BME280;59641;45.188;5.712;2022-07-22T23:54:13;99129.78;;;33.28;27.65
71795;BME280;59641;45.188;5.712;2022-07-22T23:56:39;99130.91;;;33.24;27.78
71795;BME280;59641;45.188;5.712;2022-07-22T23:59:05;99132.88;;;33.20;27.51
